sensor_id;sensor_type;location;lat;lon;timestamp;P1;durP1;ratioP1;P2;durP2;ratioP2
5475;SDS011;2760;50.000;9.194;2023-06-22T00:02:21;10.50;;;8.50;;
5475;SDS011;2760;50.000;9.194;2023-06-22T00:04:48;9.50;;;8.50;;
5475;SDS011;2760;50.000;9.194;2023-06-22T00:07:15;12.50;;;9.40;;
5475;SDS011;2760;50.000;9.194;2023-06-22T00:09:41;11.70;;;10.07;;
5475;SDS011;2760;50.000;9.194;2023-06-22T00:12:10;12.03;;;10.23;;
5475;SDS011;2760;50.000;9.194;2023-06-22T00:14:37;15.03;;;10.13;;
5475;SDS011;2760;50.000;9.194;2023-06-22T00:17:04;12.90;;;9.60;;
5475;SDS011;2760;50.000;9.194;2023-06-22T00:19:31;10.43;;;9.33;;
5475;SDS011;2760;50.000;9.194;2023-06-22T00:22:00;14.33;;;11.20;;
5475;SDS011;2760;50.000;9.194;2023-06-22T00:24:28;11.13;;;9.90;;
5475;SDS011;2760;50.000;9.194;2023-06-22T00:26:56;18.33;;;9.80;;
5475;SDS011;2760;50.000;9.194;2023-06-22T00:29:25;13.20;;;10.70;;
5475;SDS011;2760;50.000;9.194;2023-06-22T00:31:55;12.30;;;8.70;;
5475;SDS011;2760;50.000;9.194;2023-06-22T00:34:22;13.03;;;8.93;;
5475;SDS011;2760;50.000;9.194;2023-06-22T00:36:49;12.20;;;9.40;;
5475;SDS011;2760;50.000;9.194;2023-06-22T00:39:16;11.63;;;8.70;;
5475;SDS011;2760;50.000;9.194;2023-06-22T00:41:43;13.73;;;9.20;;
5475;SDS011;2760;50.000;9.194;2023-06-22T00:44:10;11.87;;;8.50;;
5475;SDS011;2760;50.000;9.194;2023-06-22T00:46:39;15.93;;;8.70;;
5475;SDS011;2760;50.000;9.194;2023-06-22T00:49:06;25.67;;;10.00;;
5475;SDS011;2760;50.000;9.194;2023-06-22T00:51:33;13.97;;;9.50;;
5475;SDS011;2760;50.000;9.194;2023-06-22T00:54:04;12.50;;;8.70;;
5475;SDS011;2760;50.000;9.194;2023-06-22T00:56:32;9.33;;;8.43;;
5475;SDS011;2760;50.000;9.194;2023-06-22T00:59:01;10.50;;;8.47;;
5475;SDS011;2760;50.000;9.194;2023-06-22T01:01:28;10.23;;;8.50;;
5475;SDS011;2760;50.000;9.194;2023-06-22T01:03:57;15.33;;;9.30;;
5475;SDS011;2760;50.000;9.194;2023-06-22T01:06:26;12.07;;;8.27;;
5475;SDS011;2760;50.000;9.194;2023-06-22T01:09:06;11.63;;;9.23;;
5475;SDS011;2760;50.000;9.194;2023-06-22T01:11:41;9.77;;;8.77;;
5475;SDS011;2760;50.000;9.194;2023-06-22T01:14:12;11.80;;;9.47;;
5475;SDS011;2760;50.000;9.194;2023-06-22T01:16:44;11.00;;;8.90;;
5475;SDS011;2760;50.000;9.194;2023-06-22T01:19:18;11.77;;;8.83;;
5475;SDS011;2760;50.000;9.194;2023-06-22T01:21:55;8.83;;;7.93;;
5475;SDS011;2760;50.000;9.194;2023-06-22T01:24:26;10.30;;;8.83;;
5475;SDS011;2760;50.000;9.194;2023-06-22T01:27:05;13.23;;;10.07;;
5475;SDS011;2760;50.000;9.194;2023-06-22T01:29:43;12.60;;;9.53;;
5475;SDS011;2760;50.000;9.194;2023-06-22T01:32:10;14.73;;;9.40;;
5475;SDS011;2760;50.000;9.194;2023-06-22T01:34:38;15.00;;;9.50;;
5475;SDS011;2760;50.000;9.194;2023-06-22T01:37:06;11.27;;;9.17;;
5475;SDS011;2760;50.000;9.194;2023-06-22T01:39:34;12.20;;;9.87;;
5475;SDS011;2760;50.000;9.194;2023-06-22T01:42:01;15.17;;;11.20;;
5475;SDS011;2760;50.000;9.194;2023-06-22T01:44:30;13.47;;;10.10;;
5475;SDS011;2760;50.000;9.194;2023-06-22T01:46:59;12.80;;;9.40;;
5475;SDS011;2760;50.000;9.194;2023-06-22T01:49:26;12.20;;;10.30;;
5475;SDS011;2760;50.000;9.194;2023-06-22T01:51:54;13.90;;;10.57;;
5475;SDS011;2760;50.000;9.194;2023-06-22T01:54:21;13.13;;;10.53;;
5475;SDS011;2760;50.000;9.194;2023-06-22T01:56:49;17.13;;;11.23;;
5475;SDS011;2760;50.000;9.194;2023-06-22T01:59:17;18.30;;;11.93;;
5475;SDS011;2760;50.000;9.194;2023-06-22T02:01:54;17.80;;;12.07;;
5475;SDS011;2760;50.000;9.194;2023-06-22T02:04:27;17.50;;;11.50;;
5475;SDS011;2760;50.000;9.194;2023-06-22T02:06:59;12.70;;;11.40;;
5475;SDS011;2760;50.000;9.194;2023-06-22T02:09:30;12.87;;;11.40;;
5475;SDS011;2760;50.000;9.194;2023-06-22T02:11:59;15.93;;;12.13;;
5475;SDS011;2760;50.000;9.194;2023-06-22T02:14:28;11.33;;;10.23;;
5475;SDS011;2760;50.000;9.194;2023-06-22T02:16:55;11.13;;;9.97;;
5475;SDS011;2760;50.000;9.194;2023-06-22T02:19:24;18.30;;;11.73;;
5475;SDS011;2760;50.000;9.194;2023-06-22T02:21:53;13.23;;;10.77;;
5475;SDS011;2760;50.000;9.194;2023-06-22T02:24:20;12.23;;;11.03;;
5475;SDS011;2760;50.000;9.194;2023-06-22T02:26:49;16.93;;;10.77;;
5475;SDS011;2760;50.000;9.194;2023-06-22T02:29:16;11.30;;;10.10;;
5475;SDS011;2760;50.000;9.194;2023-06-22T02:31:43;15.10;;;10.73;;
5475;SDS011;2760;50.000;9.194;2023-06-22T02:34:11;11.30;;;10.20;;
5475;SDS011;2760;50.000;9.194;2023-06-22T02:36:45;12.90;;;10.97;;
5475;SDS011;2760;50.000;9.194;2023-06-22T02:39:16;13.43;;;10.87;;
5475;SDS011;2760;50.000;9.194;2023-06-22T02:41:45;13.10;;;10.23;;
5475;SDS011;2760;50.000;9.194;2023-06-22T02:44:11;13.67;;;10.27;;
5475;SDS011;2760;50.000;9.194;2023-06-22T02:46:39;10.90;;;9.80;;
5475;SDS011;2760;50.000;9.194;2023-06-22T02:49:06;11.30;;;9.67;;
5475;SDS011;2760;50.000;9.194;2023-06-22T02:51:34;13.67;;;10.13;;
5475;SDS011;2760;50.000;9.194;2023-06-22T02:54:03;16.13;;;10.87;;
5475;SDS011;2760;50.000;9.194;2023-06-22T02:56:30;11.73;;;10.50;;
5475;SDS011;2760;50.000;9.194;2023-06-22T02:58:59;15.10;;;10.30;;
5475;SDS011;2760;50.000;9.194;2023-06-22T03:01:33;13.20;;;9.90;;
5475;SDS011;2760;50.000;9.194;2023-06-22T03:04:06;14.07;;;10.00;;
5475;SDS011;2760;50.000;9.194;2023-06-22T03:06:33;11.30;;;10.10;;
5475;SDS011;2760;50.000;9.194;2023-06-22T03:09:01;12.67;;;10.73;;
5475;SDS011;2760;50.000;9.194;2023-06-22T03:11:31;12.33;;;10.10;;
5475;SDS011;2760;50.000;9.194;2023-06-22T03:13:59;15.27;;;9.43;;
5475;SDS011;2760;50.000;9.194;2023-06-22T03:16:27;10.97;;;9.77;;
5475;SDS011;2760;50.000;9.194;2023-06-22T03:18:56;11.20;;;9.87;;
5475;SDS011;2760;50.000;9.194;2023-06-22T03:21:23;17.80;;;10.07;;
5475;SDS011;2760;50.000;9.194;2023-06-22T03:23:51;14.80;;;11.03;;
5475;SDS011;2760;50.000;9.194;2023-06-22T03:26:19;13.50;;;9.70;;
5475;SDS011;2760;50.000;9.194;2023-06-22T03:28:46;10.63;;;9.50;;
5475;SDS011;2760;50.000;9.194;2023-06-22T03:31:13;14.40;;;10.50;;
5475;SDS011;2760;50.000;9.194;2023-06-22T03:33:41;13.03;;;10.13;;
5475;SDS011;2760;50.000;9.194;2023-06-22T03:36:08;14.20;;;10.57;;
5475;SDS011;2760;50.000;9.194;2023-06-22T03:38:35;18.63;;;10.43;;
5475;SDS011;2760;50.000;9.194;2023-06-22T03:41:02;14.47;;;9.80;;
5475;SDS011;2760;50.000;9.194;2023-06-22T03:43:31;15.93;;;9.57;;
5475;SDS011;2760;50.000;9.194;2023-06-22T03:45:58;17.17;;;11.23;;
5475;SDS011;2760;50.000;9.194;2023-06-22T03:48:25;13.37;;;10.00;;
5475;SDS011;2760;50.000;9.194;2023-06-22T03:50:52;15.40;;;10.47;;
5475;SDS011;2760;50.000;9.194;2023-06-22T03:53:19;16.27;;;10.90;;
5475;SDS011;2760;50.000;9.194;2023-06-22T03:55:50;13.40;;;10.53;;
5475;SDS011;2760;50.000;9.194;2023-06-22T03:58:17;11.20;;;10.10;;
5475;SDS011;2760;50.000;9.194;2023-06-22T04:00:47;17.70;;;12.63;;
5475;SDS011;2760;50.000;9.194;2023-06-22T04:03:15;14.43;;;11.80;;
5475;SDS011;2760;50.000;9.194;2023-06-22T04:05:44;15.60;;;11.63;;
5475;SDS011;2760;50.000;9.194;2023-06-22T04:08:11;20.27;;;11.60;;
5475;SDS011;2760;50.000;9.194;2023-06-22T04:10:38;16.40;;;12.23;;
5475;SDS011;2760;50.000;9.194;2023-06-22T04:13:06;13.83;;;11.80;;
5475;SDS011;2760;50.000;9.194;2023-06-22T04:15:34;13.57;;;11.13;;
5475;SDS011;2760;50.000;9.194;2023-06-22T04:18:02;26.23;;;11.70;;
5475;SDS011;2760;50.000;9.194;2023-06-22T04:20:31;15.57;;;11.63;;
5475;SDS011;2760;50.000;9.194;2023-06-22T04:22:58;16.97;;;11.60;;
5475;SDS011;2760;50.000;9.194;2023-06-22T04:25:25;15.57;;;11.53;;
5475;SDS011;2760;50.000;9.194;2023-06-22T04:27:52;14.73;;;12.03;;
5475;SDS011;2760;50.000;9.194;2023-06-22T04:30:19;14.90;;;10.97;;
5475;SDS011;2760;50.000;9.194;2023-06-22T04:32:46;14.27;;;11.60;;
5475;SDS011;2760;50.000;9.194;2023-06-22T04:35:22;13.57;;;11.90;;
5475;SDS011;2760;50.000;9.194;2023-06-22T04:37:49;13.23;;;11.60;;
5475;SDS011;2760;50.000;9.194;2023-06-22T04:40:20;13.67;;;10.70;;
5475;SDS011;2760;50.000;9.194;2023-06-22T04:42:48;14.07;;;11.20;;
5475;SDS011;2760;50.000;9.194;2023-06-22T04:45:18;12.90;;;10.63;;
5475;SDS011;2760;50.000;9.194;2023-06-22T04:47:47;17.47;;;11.10;;
5475;SDS011;2760;50.000;9.194;2023-06-22T04:50:15;13.20;;;11.70;;
5475;SDS011;2760;50.000;9.194;2023-06-22T04:52:44;14.73;;;10.53;;
5475;SDS011;2760;50.000;9.194;2023-06-22T04:55:11;14.97;;;11.50;;
5475;SDS011;2760;50.000;9.194;2023-06-22T04:57:43;14.23;;;10.97;;
5475;SDS011;2760;50.000;9.194;2023-06-22T05:00:14;15.03;;;11.57;;
5475;SDS011;2760;50.000;9.194;2023-06-22T05:02:42;14.80;;;11.63;;
5475;SDS011;2760;50.000;9.194;2023-06-22T05:05:10;16.70;;;11.03;;
5475;SDS011;2760;50.000;9.194;2023-06-22T05:07:40;14.03;;;11.20;;
5475;SDS011;2760;50.000;9.194;2023-06-22T05:10:10;15.60;;;11.80;;
5475;SDS011;2760;50.000;9.194;2023-06-22T05:12:38;16.50;;;10.90;;
5475;SDS011;2760;50.000;9.194;2023-06-22T05:15:06;18.63;;;11.50;;
5475;SDS011;2760;50.000;9.194;2023-06-22T05:17:34;20.10;;;11.30;;
5475;SDS011;2760;50.000;9.194;2023-06-22T05:20:01;20.30;;;10.90;;
5475;SDS011;2760;50.000;9.194;2023-06-22T05:22:31;15.33;;;12.70;;
5475;SDS011;2760;50.000;9.194;2023-06-22T05:24:58;14.00;;;10.90;;
5475;SDS011;2760;50.000;9.194;2023-06-22T05:27:27;14.67;;;10.30;;
5475;SDS011;2760;50.000;9.194;2023-06-22T05:29:54;14.97;;;10.40;;
5475;SDS011;2760;50.000;9.194;2023-06-22T05:32:21;13.57;;;10.33;;
5475;SDS011;2760;50.000;9.194;2023-06-22T05:34:48;13.17;;;10.90;;
5475;SDS011;2760;50.000;9.194;2023-06-22T05:37:15;11.17;;;9.70;;
5475;SDS011;2760;50.000;9.194;2023-06-22T05:39:42;13.67;;;10.50;;
5475;SDS011;2760;50.000;9.194;2023-06-22T05:42:09;15.50;;;10.73;;
5475;SDS011;2760;50.000;9.194;2023-06-22T05:44:37;12.30;;;10.40;;
5475;SDS011;2760;50.000;9.194;2023-06-22T05:47:06;11.87;;;10.27;;
5475;SDS011;2760;50.000;9.194;2023-06-22T05:49:33;13.10;;;11.70;;
5475;SDS011;2760;50.000;9.194;2023-06-22T05:52:00;16.73;;;10.47;;
5475;SDS011;2760;50.000;9.194;2023-06-22T05:54:27;12.20;;;10.60;;
5475;SDS011;2760;50.000;9.194;2023-06-22T05:56:54;11.77;;;10.57;;
5475;SDS011;2760;50.000;9.194;2023-06-22T05:59:21;11.30;;;10.20;;
5475;SDS011;2760;50.000;9.194;2023-06-22T06:01:50;12.57;;;10.70;;
5475;SDS011;2760;50.000;9.194;2023-06-22T06:04:19;14.07;;;10.57;;
5475;SDS011;2760;50.000;9.194;2023-06-22T06:06:46;14.77;;;10.13;;
5475;SDS011;2760;50.000;9.194;2023-06-22T06:09:13;14.70;;;10.60;;
5475;SDS011;2760;50.000;9.194;2023-06-22T06:11:40;11.27;;;9.87;;
5475;SDS011;2760;50.000;9.194;2023-06-22T06:14:07;11.40;;;10.30;;
5475;SDS011;2760;50.000;9.194;2023-06-22T06:16:34;12.13;;;10.10;;
5475;SDS011;2760;50.000;9.194;2023-06-22T06:19:03;13.63;;;10.47;;
5475;SDS011;2760;50.000;9.194;2023-06-22T06:21:30;15.00;;;10.40;;
5475;SDS011;2760;50.000;9.194;2023-06-22T06:23:57;11.90;;;10.00;;
5475;SDS011;2760;50.000;9.194;2023-06-22T06:26:25;16.33;;;10.40;;
5475;SDS011;2760;50.000;9.194;2023-06-22T06:28:55;12.60;;;10.30;;
5475;SDS011;2760;50.000;9.194;2023-06-22T06:31:22;13.13;;;9.70;;
5475;SDS011;2760;50.000;9.194;2023-06-22T06:33:49;12.43;;;10.67;;
5475;SDS011;2760;50.000;9.194;2023-06-22T06:36:18;11.77;;;10.07;;
5475;SDS011;2760;50.000;9.194;2023-06-22T06:38:46;12.23;;;9.90;;
5475;SDS011;2760;50.000;9.194;2023-06-22T06:41:14;11.77;;;10.63;;
5475;SDS011;2760;50.000;9.194;2023-06-22T06:43:42;15.13;;;10.57;;
5475;SDS011;2760;50.000;9.194;2023-06-22T06:46:10;13.37;;;9.93;;
5475;SDS011;2760;50.000;9.194;2023-06-22T06:48:37;13.20;;;10.20;;
5475;SDS011;2760;50.000;9.194;2023-06-22T06:51:06;15.60;;;10.30;;
5475;SDS011;2760;50.000;9.194;2023-06-22T06:53:37;10.80;;;9.70;;
5475;SDS011;2760;50.000;9.194;2023-06-22T06:56:05;11.97;;;10.70;;
5475;SDS011;2760;50.000;9.194;2023-06-22T06:58:35;12.03;;;9.97;;
5475;SDS011;2760;50.000;9.194;2023-06-22T07:01:03;10.20;;;9.17;;
5475;SDS011;2760;50.000;9.194;2023-06-22T07:03:31;10.73;;;9.40;;
5475;SDS011;2760;50.000;9.194;2023-06-22T07:05:59;14.40;;;10.23;;
5475;SDS011;2760;50.000;9.194;2023-06-22T07:08:26;12.80;;;10.73;;
5475;SDS011;2760;50.000;9.194;2023-06-22T07:10:55;10.97;;;9.90;;
5475;SDS011;2760;50.000;9.194;2023-06-22T07:13:23;12.70;;;11.50;;
5475;SDS011;2760;50.000;9.194;2023-06-22T07:15:50;11.70;;;10.00;;
5475;SDS011;2760;50.000;9.194;2023-06-22T07:18:17;12.60;;;10.50;;
5475;SDS011;2760;50.000;9.194;2023-06-22T07:20:44;10.90;;;9.73;;
5475;SDS011;2760;50.000;9.194;2023-06-22T07:23:14;14.23;;;10.33;;
5475;SDS011;2760;50.000;9.194;2023-06-22T07:25:42;12.10;;;10.10;;
5475;SDS011;2760;50.000;9.194;2023-06-22T07:28:11;15.60;;;9.60;;
5475;SDS011;2760;50.000;9.194;2023-06-22T07:30:38;11.13;;;10.03;;
5475;SDS011;2760;50.000;9.194;2023-06-22T07:33:05;17.77;;;9.33;;
5475;SDS011;2760;50.000;9.194;2023-06-22T07:35:34;16.73;;;10.07;;
5475;SDS011;2760;50.000;9.194;2023-06-22T07:38:01;12.17;;;10.70;;
5475;SDS011;2760;50.000;9.194;2023-06-22T07:40:31;11.40;;;9.93;;
5475;SDS011;2760;50.000;9.194;2023-06-22T07:43:00;11.07;;;9.30;;
5475;SDS011;2760;50.000;9.194;2023-06-22T07:45:33;15.23;;;10.30;;
5475;SDS011;2760;50.000;9.194;2023-06-22T07:48:01;12.80;;;9.57;;
5475;SDS011;2760;50.000;9.194;2023-06-22T07:50:30;15.33;;;9.50;;
5475;SDS011;2760;50.000;9.194;2023-06-22T07:52:58;10.90;;;9.80;;
5475;SDS011;2760;50.000;9.194;2023-06-22T07:55:27;11.60;;;10.40;;
5475;SDS011;2760;50.000;9.194;2023-06-22T07:57:54;10.30;;;9.23;;
5475;SDS011;2760;50.000;9.194;2023-06-22T08:00:21;11.33;;;9.23;;
5475;SDS011;2760;50.000;9.194;2023-06-22T08:02:55;17.67;;;9.07;;
5475;SDS011;2760;50.000;9.194;2023-06-22T08:05:23;9.60;;;8.70;;
5475;SDS011;2760;50.000;9.194;2023-06-22T08:07:53;10.57;;;9.40;;
5475;SDS011;2760;50.000;9.194;2023-06-22T08:10:21;11.27;;;8.40;;
5475;SDS011;2760;50.000;9.194;2023-06-22T08:12:48;10.80;;;8.50;;
5475;SDS011;2760;50.000;9.194;2023-06-22T08:15:17;10.30;;;9.07;;
5475;SDS011;2760;50.000;9.194;2023-06-22T08:17:45;15.63;;;10.00;;
5475;SDS011;2760;50.000;9.194;2023-06-22T08:20:15;9.83;;;8.90;;
5475;SDS011;2760;50.000;9.194;2023-06-22T08:22:43;10.60;;;9.57;;
5475;SDS011;2760;50.000;9.194;2023-06-22T08:25:11;9.80;;;8.90;;
5475;SDS011;2760;50.000;9.194;2023-06-22T08:27:44;10.10;;;9.20;;
5475;SDS011;2760;50.000;9.194;2023-06-22T08:30:15;11.63;;;9.37;;
5475;SDS011;2760;50.000;9.194;2023-06-22T08:32:44;14.77;;;8.77;;
5475;SDS011;2760;50.000;9.194;2023-06-22T08:35:11;13.07;;;10.07;;
5475;SDS011;2760;50.000;9.194;2023-06-22T08:37:42;11.50;;;9.00;;
5475;SDS011;2760;50.000;9.194;2023-06-22T08:40:18;9.00;;;8.10;;
5475;SDS011;2760;50.000;9.194;2023-06-22T08:42:49;9.17;;;8.27;;
5475;SDS011;2760;50.000;9.194;2023-06-22T08:45:30;14.00;;;9.47;;
5475;SDS011;2760;50.000;9.194;2023-06-22T08:47:58;13.20;;;8.60;;
5475;SDS011;2760;50.000;9.194;2023-06-22T08:50:26;12.20;;;9.33;;
5475;SDS011;2760;50.000;9.194;2023-06-22T08:52:56;10.50;;;8.30;;
5475;SDS011;2760;50.000;9.194;2023-06-22T08:55:26;9.20;;;8.40;;
5475;SDS011;2760;50.000;9.194;2023-06-22T08:57:55;12.00;;;8.53;;
5475;SDS011;2760;50.000;9.194;2023-06-22T09:00:23;9.63;;;8.63;;
5475;SDS011;2760;50.000;9.194;2023-06-22T09:02:50;8.87;;;8.07;;
5475;SDS011;2760;50.000;9.194;2023-06-22T09:05:20;10.77;;;8.37;;
5475;SDS011;2760;50.000;9.194;2023-06-22T09:07:48;12.80;;;10.03;;
5475;SDS011;2760;50.000;9.194;2023-06-22T09:10:18;12.50;;;8.77;;
5475;SDS011;2760;50.000;9.194;2023-06-22T09:12:45;14.40;;;9.93;;
5475;SDS011;2760;50.000;9.194;2023-06-22T09:15:13;10.80;;;9.10;;
5475;SDS011;2760;50.000;9.194;2023-06-22T09:17:40;9.93;;;8.93;;
5475;SDS011;2760;50.000;9.194;2023-06-22T09:20:09;12.70;;;8.50;;
5475;SDS011;2760;50.000;9.194;2023-06-22T09:22:37;10.67;;;9.40;;
5475;SDS011;2760;50.000;9.194;2023-06-22T09:25:05;11.57;;;8.53;;
5475;SDS011;2760;50.000;9.194;2023-06-22T09:27:36;11.13;;;8.47;;
5475;SDS011;2760;50.000;9.194;2023-06-22T09:30:07;13.10;;;8.70;;
5475;SDS011;2760;50.000;9.194;2023-06-22T09:32:35;10.53;;;9.53;;
5475;SDS011;2760;50.000;9.194;2023-06-22T09:35:03;10.43;;;9.43;;
5475;SDS011;2760;50.000;9.194;2023-06-22T09:37:33;10.20;;;8.93;;
5475;SDS011;2760;50.000;9.194;2023-06-22T09:40:01;11.70;;;8.90;;
5475;SDS011;2760;50.000;9.194;2023-06-22T09:42:32;11.43;;;10.03;;
5475;SDS011;2760;50.000;9.194;2023-06-22T09:45:01;10.20;;;9.20;;
5475;SDS011;2760;50.000;9.194;2023-06-22T09:47:29;12.43;;;9.00;;
5475;SDS011;2760;50.000;9.194;2023-06-22T09:49:57;10.67;;;9.33;;
5475;SDS011;2760;50.000;9.194;2023-06-22T09:52:25;9.80;;;8.73;;
5475;SDS011;2760;50.000;9.194;2023-06-22T09:54:52;10.63;;;8.53;;
5475;SDS011;2760;50.000;9.194;2023-06-22T09:57:19;14.97;;;8.90;;
5475;SDS011;2760;50.000;9.194;2023-06-22T09:59:49;11.73;;;9.30;;
5475;SDS011;2760;50.000;9.194;2023-06-22T10:02:17;13.00;;;8.73;;
5475;SDS011;2760;50.000;9.194;2023-06-22T10:04:44;11.30;;;9.10;;
5475;SDS011;2760;50.000;9.194;2023-06-22T10:07:12;11.03;;;8.33;;
5475;SDS011;2760;50.000;9.194;2023-06-22T10:09:39;10.13;;;8.43;;
5475;SDS011;2760;50.000;9.194;2023-06-22T10:12:08;9.53;;;8.63;;
5475;SDS011;2760;50.000;9.194;2023-06-22T10:14:35;9.60;;;8.70;;
5475;SDS011;2760;50.000;9.194;2023-06-22T10:17:03;11.60;;;8.20;;
5475;SDS011;2760;50.000;9.194;2023-06-22T10:19:40;10.10;;;9.00;;
5475;SDS011;2760;50.000;9.194;2023-06-22T10:22:07;8.87;;;7.97;;
5475;SDS011;2760;50.000;9.194;2023-06-22T10:24:34;12.27;;;9.47;;
5475;SDS011;2760;50.000;9.194;2023-06-22T10:27:03;14.67;;;8.37;;
5475;SDS011;2760;50.000;9.194;2023-06-22T10:29:31;9.57;;;8.40;;
5475;SDS011;2760;50.000;9.194;2023-06-22T10:31:58;16.37;;;8.70;;
5475;SDS011;2760;50.000;9.194;2023-06-22T10:34:25;11.50;;;9.23;;
5475;SDS011;2760;50.000;9.194;2023-06-22T10:36:55;12.93;;;8.20;;
5475;SDS011;2760;50.000;9.194;2023-06-22T10:39:22;14.97;;;9.27;;
5475;SDS011;2760;50.000;9.194;2023-06-22T10:41:49;10.23;;;9.10;;
5475;SDS011;2760;50.000;9.194;2023-06-22T10:44:16;10.10;;;8.80;;
5475;SDS011;2760;50.000;9.194;2023-06-22T10:46:44;10.87;;;9.10;;
5475;SDS011;2760;50.000;9.194;2023-06-22T10:49:12;10.27;;;9.00;;
5475;SDS011;2760;50.000;9.194;2023-06-22T10:51:40;15.90;;;9.10;;
5475;SDS011;2760;50.000;9.194;2023-06-22T10:54:09;9.03;;;8.03;;
5475;SDS011;2760;50.000;9.194;2023-06-22T10:56:38;11.20;;;8.77;;
5475;SDS011;2760;50.000;9.194;2023-06-22T10:59:05;10.43;;;8.33;;
5475;SDS011;2760;50.000;9.194;2023-06-22T11:01:33;10.07;;;9.10;;
5475;SDS011;2760;50.000;9.194;2023-06-22T11:04:02;9.43;;;8.43;;
5475;SDS011;2760;50.000;9.194;2023-06-22T11:06:29;15.00;;;8.70;;
5475;SDS011;2760;50.000;9.194;2023-06-22T11:08:59;10.87;;;8.77;;
5475;SDS011;2760;50.000;9.194;2023-06-22T11:11:30;9.77;;;8.50;;
5475;SDS011;2760;50.000;9.194;2023-06-22T11:13:59;11.03;;;8.90;;
5475;SDS011;2760;50.000;9.194;2023-06-22T11:16:26;12.80;;;9.03;;
5475;SDS011;2760;50.000;9.194;2023-06-22T11:18:54;10.23;;;7.83;;
5475;SDS011;2760;50.000;9.194;2023-06-22T11:21:22;17.20;;;9.33;;
5475;SDS011;2760;50.000;9.194;2023-06-22T11:23:50;10.93;;;7.90;;
5475;SDS011;2760;50.000;9.194;2023-06-22T11:26:17;10.07;;;8.17;;
5475;SDS011;2760;50.000;9.194;2023-06-22T11:28:47;10.57;;;8.10;;
5475;SDS011;2760;50.000;9.194;2023-06-22T11:31:18;10.67;;;8.70;;
5475;SDS011;2760;50.000;9.194;2023-06-22T11:33:45;12.43;;;9.63;;
5475;SDS011;2760;50.000;9.194;2023-06-22T11:36:13;12.70;;;8.90;;
5475;SDS011;2760;50.000;9.194;2023-06-22T11:38:41;9.97;;;8.97;;
5475;SDS011;2760;50.000;9.194;2023-06-22T11:41:13;15.27;;;9.57;;
5475;SDS011;2760;50.000;9.194;2023-06-22T11:47:09;10.07;;;9.17;;
5475;SDS011;2760;50.000;9.194;2023-06-22T11:49:38;12.87;;;9.97;;
5475;SDS011;2760;50.000;9.194;2023-06-22T11:52:20;11.27;;;9.10;;
5475;SDS011;2760;50.000;9.194;2023-06-22T11:54:50;12.10;;;8.30;;
5475;SDS011;2760;50.000;9.194;2023-06-22T11:57:17;10.17;;;8.93;;
5475;SDS011;2760;50.000;9.194;2023-06-22T11:59:44;14.07;;;9.47;;
5475;SDS011;2760;50.000;9.194;2023-06-22T12:02:13;12.57;;;9.83;;
5475;SDS011;2760;50.000;9.194;2023-06-22T12:04:40;17.00;;;9.30;;
5475;SDS011;2760;50.000;9.194;2023-06-22T12:07:08;14.60;;;9.90;;
5475;SDS011;2760;50.000;9.194;2023-06-22T12:09:39;14.40;;;10.47;;
5475;SDS011;2760;50.000;9.194;2023-06-22T12:12:13;15.00;;;9.80;;
5475;SDS011;2760;50.000;9.194;2023-06-22T12:14:40;14.50;;;8.83;;
5475;SDS011;2760;50.000;9.194;2023-06-22T12:17:08;10.90;;;8.80;;
5475;SDS011;2760;50.000;9.194;2023-06-22T12:19:36;11.50;;;8.47;;
5475;SDS011;2760;50.000;9.194;2023-06-22T12:22:03;14.30;;;8.50;;
5475;SDS011;2760;50.000;9.194;2023-06-22T12:24:31;10.90;;;7.90;;
5475;SDS011;2760;50.000;9.194;2023-06-22T12:26:58;10.93;;;8.70;;
5475;SDS011;2760;50.000;9.194;2023-06-22T12:29:25;16.10;;;8.93;;
5475;SDS011;2760;50.000;9.194;2023-06-22T12:31:53;14.10;;;8.20;;
5475;SDS011;2760;50.000;9.194;2023-06-22T12:34:23;13.40;;;8.37;;
5475;SDS011;2760;50.000;9.194;2023-06-22T12:36:52;10.87;;;8.30;;
5475;SDS011;2760;50.000;9.194;2023-06-22T12:39:20;16.23;;;8.63;;
5475;SDS011;2760;50.000;9.194;2023-06-22T12:41:47;12.23;;;8.70;;
5475;SDS011;2760;50.000;9.194;2023-06-22T12:44:15;14.67;;;9.07;;
5475;SDS011;2760;50.000;9.194;2023-06-22T12:46:42;11.20;;;9.00;;
5475;SDS011;2760;50.000;9.194;2023-06-22T12:49:09;14.10;;;8.53;;
5475;SDS011;2760;50.000;9.194;2023-06-22T12:51:39;9.50;;;8.60;;
5475;SDS011;2760;50.000;9.194;2023-06-22T12:54:10;14.80;;;8.87;;
5475;SDS011;2760;50.000;9.194;2023-06-22T12:56:39;10.50;;;7.67;;
5475;SDS011;2760;50.000;9.194;2023-06-22T12:59:07;13.70;;;7.90;;
5475;SDS011;2760;50.000;9.194;2023-06-22T13:01:34;9.23;;;7.30;;
5475;SDS011;2760;50.000;9.194;2023-06-22T13:04:02;14.50;;;8.13;;
5475;SDS011;2760;50.000;9.194;2023-06-22T13:06:29;10.70;;;8.20;;
5475;SDS011;2760;50.000;9.194;2023-06-22T13:08:59;9.10;;;7.83;;
5475;SDS011;2760;50.000;9.194;2023-06-22T13:11:27;14.10;;;8.20;;
5475;SDS011;2760;50.000;9.194;2023-06-22T13:13:54;12.13;;;7.70;;
5475;SDS011;2760;50.000;9.194;2023-06-22T13:16:21;14.20;;;8.97;;
5475;SDS011;2760;50.000;9.194;2023-06-22T13:18:48;9.90;;;6.83;;
5475;SDS011;2760;50.000;9.194;2023-06-22T13:21:15;11.63;;;7.73;;
5475;SDS011;2760;50.000;9.194;2023-06-22T13:23:42;9.20;;;6.17;;
5475;SDS011;2760;50.000;9.194;2023-06-22T13:26:09;10.07;;;7.10;;
5475;SDS011;2760;50.000;9.194;2023-06-22T13:28:37;9.73;;;6.97;;
5475;SDS011;2760;50.000;9.194;2023-06-22T13:31:04;12.57;;;6.90;;
5475;SDS011;2760;50.000;9.194;2023-06-22T13:33:31;8.07;;;7.27;;
5475;SDS011;2760;50.000;9.194;2023-06-22T13:35:58;13.00;;;7.40;;
5475;SDS011;2760;50.000;9.194;2023-06-22T13:38:25;13.53;;;7.70;;
5475;SDS011;2760;50.000;9.194;2023-06-22T13:40:52;12.60;;;7.23;;
5475;SDS011;2760;50.000;9.194;2023-06-22T13:43:21;15.90;;;7.40;;
5475;SDS011;2760;50.000;9.194;2023-06-22T13:45:49;10.60;;;7.43;;
5475;SDS011;2760;50.000;9.194;2023-06-22T13:48:16;9.97;;;6.60;;
5475;SDS011;2760;50.000;9.194;2023-06-22T13:50:44;14.20;;;6.93;;
5475;SDS011;2760;50.000;9.194;2023-06-22T13:53:11;11.00;;;7.20;;
5475;SDS011;2760;50.000;9.194;2023-06-22T13:55:38;15.77;;;7.23;;
5475;SDS011;2760;50.000;9.194;2023-06-22T13:58:05;10.30;;;7.07;;
5475;SDS011;2760;50.000;9.194;2023-06-22T14:00:33;10.30;;;6.20;;
5475;SDS011;2760;50.000;9.194;2023-06-22T14:03:02;13.63;;;6.80;;
5475;SDS011;2760;50.000;9.194;2023-06-22T14:05:30;10.63;;;6.10;;
5475;SDS011;2760;50.000;9.194;2023-06-22T14:07:57;16.63;;;7.13;;
5475;SDS011;2760;50.000;9.194;2023-06-22T14:10:24;10.53;;;7.57;;
5475;SDS011;2760;50.000;9.194;2023-06-22T14:12:51;10.83;;;7.00;;
5475;SDS011;2760;50.000;9.194;2023-06-22T14:15:19;9.83;;;6.30;;
5475;SDS011;2760;50.000;9.194;2023-06-22T14:17:46;11.33;;;6.70;;
5475;SDS011;2760;50.000;9.194;2023-06-22T14:20:14;10.80;;;6.87;;
5475;SDS011;2760;50.000;9.194;2023-06-22T14:22:41;10.83;;;6.80;;
5475;SDS011;2760;50.000;9.194;2023-06-22T14:25:09;17.00;;;8.17;;
5475;SDS011;2760;50.000;9.194;2023-06-22T14:27:36;13.97;;;6.47;;
5475;SDS011;2760;50.000;9.194;2023-06-22T14:30:03;10.63;;;6.73;;
5475;SDS011;2760;50.000;9.194;2023-06-22T14:32:31;17.63;;;8.43;;
5475;SDS011;2760;50.000;9.194;2023-06-22T14:34:58;8.83;;;6.60;;
5475;SDS011;2760;50.000;9.194;2023-06-22T14:37:28;10.50;;;5.90;;
5475;SDS011;2760;50.000;9.194;2023-06-22T14:39:55;16.30;;;6.37;;
5475;SDS011;2760;50.000;9.194;2023-06-22T14:42:22;14.77;;;6.30;;
5475;SDS011;2760;50.000;9.194;2023-06-22T14:44:51;15.57;;;6.60;;
5475;SDS011;2760;50.000;9.194;2023-06-22T14:47:19;9.70;;;6.70;;
5475;SDS011;2760;50.000;9.194;2023-06-22T14:49:46;15.83;;;7.30;;
5475;SDS011;2760;50.000;9.194;2023-06-22T14:52:14;12.47;;;6.40;;
5475;SDS011;2760;50.000;9.194;2023-06-22T14:54:42;10.90;;;6.20;;
5475;SDS011;2760;50.000;9.194;2023-06-22T14:57:09;14.43;;;6.70;;
5475;SDS011;2760;50.000;9.194;2023-06-22T14:59:36;8.33;;;6.47;;
5475;SDS011;2760;50.000;9.194;2023-06-22T15:02:05;9.30;;;6.83;;
5475;SDS011;2760;50.000;9.194;2023-06-22T15:04:32;12.93;;;6.40;;
5475;SDS011;2760;50.000;9.194;2023-06-22T15:07:00;16.47;;;7.10;;
5475;SDS011;2760;50.000;9.194;2023-06-22T15:09:27;13.63;;;6.50;;